Orbital elements of SL-8 R/B
| Launched | 7 July 1976 |
| Flight ended | – |
| Launch site | Plesetsk Missile and Space Complex, Russia |
| Owner | Commonwealth of Independent States (former USSR) |
| NORAD ID | 9013 |
| Date fetched |
Epoch osculation |
Inc. [°] |
Ecc. | RA asc node [hr] |
Arg Peri. [°] |
Mean anom [°] |
Mean motion [rev/day] |
Abs. mag |
| Date fetched |
Epoch osculation |
Inc. [°] |
Ecc. | RA asc node [hr] |
Arg Peri. [°] |
Mean anom [°] |
Mean motion [rev/day] |
Abs. mag |
| 2026 May 05 17:57 | 2026 May 05 09:56:23 | 65.8630 | 0.07207 | 12.4715 | 242.9152 | 109.6573 | 12.35413 | 4.743 |
| 2026 May 04 17:57 | 2026 Apr 30 13:22:06 | 65.8635 | 0.07207 | 13.1005 | 244.7995 | 109.6573 | 12.35413 | 4.743 |
| 2026 May 03 17:57 | 2026 Apr 30 13:22:06 | 65.8635 | 0.07207 | 13.1005 | 244.7995 | 109.6573 | 12.35413 | 4.743 |
| 2026 May 02 17:57 | 2026 Apr 30 13:22:06 | 65.8635 | 0.07207 | 13.1005 | 244.7995 | 109.6573 | 12.35413 | 4.743 |
| 2026 May 01 17:56 | 2026 Apr 30 13:22:06 | 65.8635 | 0.07207 | 13.1005 | 244.7995 | 109.6573 | 12.35413 | 4.743 |
| 2026 Apr 30 17:56 | 2026 Apr 30 13:22:06 | 65.8635 | 0.07207 | 13.1005 | 244.7995 | 109.6573 | 12.35413 | 4.743 |
| 2026 Apr 29 17:57 | 2026 Apr 24 11:39:16 | 65.8643 | 0.07208 | 13.8867 | 247.1568 | 109.6573 | 12.35413 | 4.743 |
| 2026 Apr 28 17:56 | 2026 Apr 24 11:39:16 | 65.8643 | 0.07208 | 13.8867 | 247.1568 | 109.6573 | 12.35413 | 4.743 |
| 2026 Apr 27 17:58 | 2026 Apr 24 11:39:16 | 65.8643 | 0.07208 | 13.8867 | 247.1568 | 109.6573 | 12.35413 | 4.743 |
| 2026 Apr 26 17:58 | 2026 Apr 24 11:39:16 | 65.8643 | 0.07208 | 13.8867 | 247.1568 | 109.6573 | 12.35413 | 4.743 |
| 2026 Apr 25 17:58 | 2026 Apr 24 11:39:16 | 65.8643 | 0.07208 | 13.8867 | 247.1568 | 109.6573 | 12.35413 | 4.743 |
| 2026 Apr 24 17:59 | 2026 Apr 24 11:39:16 | 65.8643 | 0.07208 | 13.8867 | 247.1568 | 109.6573 | 12.35413 | 4.743 |
| 2026 Apr 23 17:57 | 2026 Apr 19 13:08:26 | 65.8641 | 0.07208 | 14.5261 | 249.0755 | 109.6573 | 12.35413 | 4.743 |
| 2026 Apr 22 17:57 | 2026 Apr 19 13:08:26 | 65.8641 | 0.07208 | 14.5261 | 249.0755 | 109.6573 | 12.35413 | 4.743 |
| 2026 Apr 21 17:57 | 2026 Apr 19 13:08:26 | 65.8641 | 0.07208 | 14.5261 | 249.0755 | 109.6573 | 12.35413 | 4.743 |
| 2026 Apr 20 17:57 | 2026 Apr 19 13:08:26 | 65.8641 | 0.07208 | 14.5261 | 249.0755 | 109.6573 | 12.35413 | 4.743 |
| 2026 Apr 19 17:58 | 2026 Apr 19 13:08:26 | 65.8641 | 0.07208 | 14.5261 | 249.0755 | 109.6573 | 12.35413 | 4.743 |
| 2026 Apr 18 17:56 | 2026 Apr 13 07:32:27 | 65.8638 | 0.07209 | 15.3333 | 251.4971 | 109.6573 | 12.35413 | 4.743 |
| 2026 Apr 16 17:57 | 2026 Apr 13 07:32:27 | 65.8638 | 0.07209 | 15.3333 | 251.4971 | 109.6573 | 12.35413 | 4.743 |
| 2026 Apr 14 17:57 | 2026 Apr 13 07:32:27 | 65.8638 | 0.07209 | 15.3333 | 251.4971 | 109.6573 | 12.35413 | 4.743 |
| 2026 Apr 13 17:57 | 2026 Apr 13 07:32:27 | 65.8638 | 0.07209 | 15.3333 | 251.4971 | 109.6573 | 12.35413 | 4.743 |
| 2026 Apr 12 17:57 | 2026 Apr 08 14:51:20 | 65.8632 | 0.07210 | 15.9414 | 253.3204 | 109.6573 | 12.35413 | 4.743 |
| 2026 Apr 11 17:57 | 2026 Apr 08 14:51:20 | 65.8632 | 0.07210 | 15.9414 | 253.3204 | 109.6573 | 12.35413 | 4.743 |
| 2026 Apr 10 17:58 | 2026 Apr 08 14:51:20 | 65.8632 | 0.07210 | 15.9414 | 253.3204 | 109.6573 | 12.35413 | 4.743 |
| 2026 Apr 09 18:01 | 2026 Apr 08 14:51:20 | 65.8632 | 0.07210 | 15.9414 | 253.3204 | 109.6573 | 12.35413 | 4.743 |
| 2026 Apr 08 17:57 | 2026 Apr 08 14:51:20 | 65.8632 | 0.07210 | 15.9414 | 253.3204 | 109.6573 | 12.35413 | 4.743 |